Time;durP1;ratioP1;P1;durP2;ratioP2;P2;SDS_P1;SDS_P2;PMS_P1;PMS_P2;Temp;Humidity;BMP_temperature;BMP_pressure;BME280_temperature;BME280_humidity;BME280_pressure;Samples;Min_cycle;Max_cycle;Signal;HPM_P1;HPM_P2
2022/04/28 00:00:56;;;;;;;0.35;0.35;;;11.10;1.00;;;;;;5093724;28;20064;-77
2022/04/28 00:03:23;;;;;;;0.65;0.63;;;11.00;1.00;;;;;;5077161;28;20058;-77
2022/04/28 00:05:51;;;;;;;0.38;0.38;;;11.10;1.00;;;;;;5107318;28;20047;-77
2022/04/28 00:08:18;;;;;;;1.23;1.13;;;11.10;1.00;;;;;;5097480;28;20032;-75
2022/04/28 00:10:47;;;;;;;1.48;1.38;;;11.00;1.00;;;;;;5092273;28;20055;-79
2022/04/28 00:13:14;;;;;;;0.65;0.50;;;11.10;1.00;;;;;;5119941;28;20067;-77
2022/04/28 00:15:42;;;;;;;1.65;1.55;;;11.10;1.00;;;;;;5120610;28;20028;-77
2022/04/28 00:18:10;;;;;;;0.20;0.20;;;11.10;1.00;;;;;;5120412;28;20597;-77
2022/04/28 00:20:37;;;;;;;0.65;0.52;;;11.10;1.00;;;;;;5101213;28;20064;-77
2022/04/28 00:23:05;;;;;;;0.98;0.88;;;11.10;1.00;;;;;;5112024;28;20101;-77
2022/04/28 00:25:32;;;;;;;1.08;0.50;;;11.10;1.00;;;;;;5097521;28;20047;-78
2022/04/28 00:28:01;;;;;;;0.85;0.65;;;11.10;1.00;;;;;;5097927;28;20051;-77
2022/04/28 00:30:28;;;;;;;0.63;0.63;;;11.10;1.00;;;;;;5097845;28;20376;-77
2022/04/28 00:32:56;;;;;;;0.25;0.25;;;11.10;1.00;;;;;;5078818;28;20052;-76
2022/04/28 00:35:24;;;;;;;0.10;0.10;;;11.00;1.00;;;;;;5097135;28;20043;-77
2022/04/28 00:37:51;;;;;;;2.70;2.13;;;11.10;1.00;;;;;;5078878;28;20050;-78
2022/04/28 00:40:18;;;;;;;1.27;1.10;;;11.00;1.00;;;;;;5084963;28;20457;-76
2022/04/28 00:42:46;;;;;;;0.65;0.65;;;10.90;1.00;;;;;;5105306;28;20042;-77
2022/04/28 00:45:15;;;;;;;0.20;0.20;;;10.90;1.00;;;;;;5084321;28;20040;-77
2022/04/28 00:50:39;;;;;;;0.22;0.22;;;10.90;1.00;;;;;;5096591;28;20047;-78
2022/04/28 00:53:11;;;;;;;1.95;1.05;;;10.90;1.00;;;;;;5093756;28;20047;-78
2022/04/28 00:55:39;;;;;;;0.57;0.57;;;10.90;1.00;;;;;;5075188;28;20052;-78
2022/04/28 00:58:06;;;;;;;0.25;0.25;;;10.90;1.00;;;;;;5072295;28;20040;-78
2022/04/28 01:00:36;;;;;;;0.00;0.00;;;10.90;1.00;;;;;;5087902;28;20036;-77
2022/04/28 01:03:03;;;;;;;1.73;0.77;;;10.90;1.00;;;;;;5096260;28;20051;-77
2022/04/28 01:05:32;;;;;;;31.05;1.90;;;10.90;1.00;;;;;;5066859;28;20055;-77
2022/04/28 01:07:59;;;;;;;1.48;1.38;;;11.00;1.00;;;;;;5060022;28;20064;-77
2022/04/28 01:10:27;;;;;;;0.55;0.52;;;11.00;1.00;;;;;;5062348;28;20036;-77
2022/04/28 01:12:55;;;;;;;0.17;0.17;;;10.90;1.00;;;;;;5084131;28;20072;-77
2022/04/28 01:15:22;;;;;;;3.97;0.90;;;10.80;1.00;;;;;;5086752;28;20047;-77
2022/04/28 01:17:51;;;;;;;0.20;0.20;;;10.90;1.00;;;;;;5078001;28;20403;-77
2022/04/28 01:20:19;;;;;;;1.00;0.90;;;10.90;1.00;;;;;;5062442;28;20055;-76
2022/04/28 01:22:48;;;;;;;2.08;0.65;;;10.90;1.00;;;;;;5077822;28;20044;-77
2022/04/28 01:25:16;;;;;;;0.00;0.00;;;11.00;1.00;;;;;;5077775;28;20403;-76
2022/04/28 01:27:43;;;;;;;0.28;0.28;;;11.00;1.00;;;;;;5078024;28;20103;-78
2022/04/28 01:30:15;;;;;;;2.42;2.20;;;11.00;1.00;;;;;;5076718;28;20130;-77
2022/04/28 01:32:50;;;;;;;0.30;0.30;;;11.00;1.00;;;;;;5063682;28;20507;-76
2022/04/28 01:35:19;;;;;;;2.38;0.68;;;11.00;1.00;;;;;;5067590;28;20093;-77
2022/04/28 01:37:48;;;;;;;3.30;1.50;;;11.00;1.00;;;;;;5057728;28;20048;-77
2022/04/28 01:40:20;;;;;;;0.55;0.55;;;11.10;1.00;;;;;;5057737;28;20116;-77
2022/04/28 01:42:49;;;;;;;0.90;0.55;;;11.10;1.00;;;;;;5057702;28;20049;-77
2022/04/28 01:45:18;;;;;;;2.08;0.93;;;11.00;1.00;;;;;;5057727;28;20046;-78
2022/04/28 01:48:04;;;;;;;0.47;0.20;;;11.00;1.00;;;;;;5081747;28;20051;-77
2022/04/28 01:56:41;;;;;;;1.45;1.35;;;10.90;1.00;;;;;;5078659;28;20044;-77
2022/04/28 01:59:18;;;;;;;0.77;0.75;;;10.90;1.00;;;;;;5075070;28;20044;-76
2022/04/28 02:02:11;;;;;;;2.00;1.88;;;11.00;1.00;;;;;;5061706;28;20055;-78
2022/04/28 02:04:39;;;;;;;1.48;1.13;;;10.90;1.00;;;;;;5057103;28;20072;-77
2022/04/28 02:07:07;;;;;;;0.52;0.52;;;11.00;1.00;;;;;;5057364;28;20423;-77
2022/04/28 02:09:37;;;;;;;4.78;1.90;;;11.00;1.00;;;;;;5060007;28;20043;-77
2022/04/28 02:12:07;;;;;;;0.70;0.70;;;10.90;1.00;;;;;;5065164;28;20057;-77
2022/04/28 02:15:07;;;;;;;1.13;1.02;;;10.90;99.90;;;;;;5057302;28;20044;-77
2022/04/28 02:17:57;;;;;;;1.75;1.13;;;10.90;1.00;;;;;;5066685;28;20060;-78
2022/04/28 02:20:26;;;;;;;1.35;1.02;;;10.90;1.00;;;;;;5065581;28;20040;-77
2022/04/28 02:22:55;;;;;;;1.23;1.05;;;10.80;1.00;;;;;;5075777;28;20079;-76
2022/04/28 02:25:25;;;;;;;0.57;0.57;;;10.80;1.00;;;;;;5076746;28;20506;-77
2022/04/28 02:27:54;;;;;;;1.85;1.75;;;10.80;1.00;;;;;;5076621;28;20055;-77
2022/04/28 02:30:22;;;;;;;0.73;0.73;;;10.80;1.00;;;;;;5076340;28;20041;-77
2022/04/28 02:35:46;;;;;;;0.57;0.57;;;10.90;1.00;;;;;;5075497;28;20043;-77
2022/04/28 02:38:13;;;;;;;3.00;0.80;;;10.90;1.00;;;;;;5076116;28;20414;-77
2022/04/28 02:40:42;;;;;;;0.52;0.52;;;10.90;1.00;;;;;;5076762;28;20036;-78
2022/04/28 02:43:09;;;;;;;19.60;15.63;;;10.90;1.00;;;;;;5076406;28;20083;-77
2022/04/28 02:45:37;;;;;;;23.15;15.75;;;10.90;1.00;;;;;;5094723;28;20548;-77
2022/04/28 02:48:05;;;;;;;22.00;16.20;;;10.90;1.00;;;;;;5076438;28;20135;-77
2022/04/28 02:50:33;;;;;;;21.23;16.15;;;10.90;1.00;;;;;;5076553;28;20415;-77
2022/04/28 02:53:01;;;;;;;21.48;15.55;;;10.90;1.00;;;;;;5076004;28;20048;-77
2022/04/28 02:55:39;;;;;;;20.95;15.95;;;10.90;1.00;;;;;;5076376;28;20060;-76
2022/04/28 02:58:09;;;;;;;20.85;15.57;;;10.90;1.00;;;;;;5094522;28;20044;-76
2022/04/28 03:00:37;;;;;;;20.52;15.60;;;10.90;1.00;;;;;;5076609;28;20422;-77
2022/04/28 03:03:05;;;;;;;23.08;15.40;;;10.90;1.00;;;;;;5076386;28;20051;-77
2022/04/28 03:10:46;;;;;;;22.10;16.20;;;10.90;1.00;;;;;;5076273;28;20372;-77
2022/04/28 03:11:05;;;;;;;23.50;17.83;;;10.90;1.00;;;;;;5055804;28;20054;-77
2022/04/28 03:13:35;;;;;;;25.00;18.73;;;10.90;1.00;;;;;;5055815;28;20101;-77
2022/04/28 03:16:03;;;;;;;28.27;20.17;;;10.80;1.00;;;;;;5055763;28;20507;-78
2022/04/28 03:19:10;;;;;;;29.67;17.83;;;10.80;1.00;;;;;;5074134;28;20068;-77
2022/04/28 03:21:38;;;;;;;24.40;17.90;;;10.80;1.00;;;;;;5078125;28;20046;-78
2022/04/28 03:24:08;;;;;;;22.48;17.20;;;10.80;1.00;;;;;;5057257;28;20044;-77
2022/04/28 03:26:37;;;;;;;22.52;16.35;;;10.80;1.00;;;;;;5086068;28;20085;-77
2022/04/28 03:29:08;;;;;;;23.23;16.88;;;10.90;1.00;;;;;;5064092;28;20051;-78
2022/04/28 03:31:36;;;;;;;19.30;15.77;;;10.80;1.00;;;;;;5060923;28;20443;-77
2022/04/28 03:34:29;;;;;;;21.13;15.93;;;10.80;1.00;;;;;;5079441;28;20048;-77
2022/04/28 03:36:58;;;;;;;22.85;16.48;;;10.70;1.00;;;;;;5087954;28;20051;-78
2022/04/28 03:39:38;;;;;;;18.63;15.05;;;10.70;1.00;;;;;;5072395;28;20064;-77
2022/04/28 03:42:06;;;;;;;18.38;14.98;;;10.70;1.00;;;;;;5072836;28;20151;-77
2022/04/28 03:44:35;;;;;;;19.52;14.43;;;10.80;1.00;;;;;;5055432;28;20049;-78
2022/04/28 03:47:03;;;;;;;18.52;13.57;;;10.80;1.00;;;;;;5072475;28;20112;-78
2022/04/28 03:49:31;;;;;;;17.20;13.32;;;10.90;1.00;;;;;;5071414;28;20135;-78
2022/04/28 03:51:58;;;;;;;16.70;13.77;;;10.80;1.00;;;;;;5063624;28;20048;-77
2022/04/28 03:54:26;;;;;;;16.20;13.50;;;10.80;1.00;;;;;;5082080;28;20051;-78
2022/04/28 03:56:53;;;;;;;21.17;14.32;;;10.80;1.00;;;;;;5069909;28;20072;-77
2022/04/28 03:59:21;;;;;;;16.42;14.20;;;10.80;1.00;;;;;;5058474;28;20052;-77
2022/04/28 04:02:11;;;;;;;17.50;14.20;;;10.80;1.00;;;;;;5081012;28;20055;-78
2022/04/28 04:04:39;;;;;;;17.70;14.50;;;10.80;1.00;;;;;;5062712;28;20048;-78
2022/04/28 04:07:10;;;;;;;15.90;14.20;;;10.80;1.00;;;;;;5055758;28;20047;-77
2022/04/28 04:09:38;;;;;;;18.52;14.05;;;10.80;1.00;;;;;;5082255;28;20488;-77
2022/04/28 04:12:11;;;;;;;17.88;13.68;;;10.80;1.00;;;;;;5064443;28;20056;-78
2022/04/28 04:15:14;;;;;;;18.48;14.77;;;10.80;1.00;;;;;;5013338;28;20094;-79
2022/04/28 04:18:02;;;;;;;19.38;13.98;;;10.90;1.00;;;;;;5076257;28;20395;-78
2022/04/28 04:20:40;;;;;;;20.50;15.93;;;10.80;1.00;;;;;;5065039;28;20196;-78
2022/04/28 04:23:08;;;;;;;17.52;14.73;;;10.80;1.00;;;;;;5058467;28;20139;-77
2022/04/28 04:25:35;;;;;;;19.30;15.75;;;10.80;1.00;;;;;;5063084;28;20045;-78
2022/04/28 04:28:08;;;;;;;20.60;16.95;;;10.90;1.00;;;;;;5064126;28;20049;-78
2022/04/28 04:34:01;;;;;;;21.52;17.98;;;10.90;1.00;;;;;;5073330;28;20052;-77
2022/04/28 04:36:28;;;;;;;21.98;17.63;;;10.80;1.00;;;;;;5072468;28;20056;-77
2022/04/28 04:38:57;;;;;;;21.98;17.45;;;10.80;1.00;;;;;;5075785;28;20436;-78
2022/04/28 04:41:28;;;;;;;22.33;17.70;;;10.70;1.00;;;;;;5076159;28;20487;-77
2022/04/28 04:43:57;;;;;;;22.08;17.13;;;10.70;1.00;;;;;;5094554;28;20047;-77
2022/04/28 04:46:24;;;;;;;23.08;17.42;;;10.80;1.00;;;;;;5095358;28;20048;-77
2022/04/28 04:49:12;;;;;;;40.83;19.75;;;10.70;1.00;;;;;;5112629;28;20456;-76
2022/04/28 04:51:40;;;;;;;20.38;17.38;;;10.80;1.00;;;;;;5086740;28;20071;-77
2022/04/28 04:54:20;;;;;;;20.98;17.75;;;10.80;1.00;;;;;;5080588;28;20047;-77
2022/04/28 04:56:49;;;;;;;25.08;18.38;;;10.80;1.00;;;;;;5077715;28;20517;-78
2022/04/28 04:59:17;;;;;;;21.90;18.75;;;10.80;1.00;;;;;;5077261;28;20078;-78
2022/04/28 05:01:45;;;;;;;22.83;19.17;;;10.80;1.00;;;;;;5080373;28;20391;-77
2022/04/28 05:04:32;;;;;;;25.05;18.80;;;10.90;1.00;;;;;;5096716;28;20050;-77
2022/04/28 05:07:32;;;;;;;29.00;20.15;;;10.90;1.00;;;;;;5066933;28;20087;-78
2022/04/28 05:10:02;;;;;;;23.58;19.65;;;11.00;1.00;;;;;;5055989;28;20044;-78
2022/04/28 05:12:32;;;;;;;25.15;20.27;;;11.00;1.00;;;;;;5045553;28;20041;-77
2022/04/28 05:15:28;;;;;;;25.83;19.98;;;11.10;1.00;;;;;;5054539;28;20049;-77
2022/04/28 05:18:18;;;;;;;28.10;21.45;;;11.20;1.00;;;;;;5074474;28;20044;-77
2022/04/28 05:20:52;;;;;;;26.08;21.15;;;11.20;1.00;;;;;;5039017;28;20060;-78
2022/04/28 05:23:26;;;;;;;24.38;19.58;;;11.30;1.00;;;;;;5057457;28;20503;-79
2022/04/28 05:26:12;;;;;;;24.55;20.38;;;11.40;1.00;;;;;;5062785;28;20059;-79
2022/04/28 05:28:58;;;;;;;26.67;19.20;;;11.40;1.00;;;;;;5066502;28;20059;-79
2022/04/28 05:31:42;;;;;;;27.88;20.42;;;11.40;1.00;;;;;;5064018;28;20033;-78
2022/04/28 05:34:29;;;;;;;24.23;19.48;;;11.40;1.00;;;;;;5063319;28;20167;-79
2022/04/28 05:37:07;;;;;;;23.88;19.20;;;11.40;1.00;;;;;;5076648;28;20037;-79
2022/04/28 05:39:36;;;;;;;24.95;18.70;;;11.40;1.00;;;;;;5058536;28;20514;-78
2022/04/28 05:42:04;;;;;;;23.35;18.90;;;11.50;1.00;;;;;;5076599;28;20083;-79
2022/04/28 05:47:16;;;;;;;23.42;19.40;;;11.50;1.00;;;;;;5058393;28;20484;-78
2022/04/28 05:49:44;;;;;;;25.35;20.08;;;11.60;1.00;;;;;;5058727;28;20151;-78
2022/04/28 05:52:14;;;;;;;23.88;19.92;;;11.60;1.00;;;;;;5058710;28;20143;-79
2022/04/28 05:54:42;;;;;;;26.85;20.27;;;11.70;99.90;;;;;;5058518;28;20071;-79
2022/04/28 05:57:11;;;;;;;23.05;18.60;;;11.60;99.90;;;;;;5058721;28;20051;-79
2022/04/28 05:59:40;;;;;;;25.70;20.17;;;11.60;99.90;;;;;;5058284;28;20048;-78
2022/04/28 06:02:26;;;;;;;33.05;25.90;;;11.70;99.90;;;;;;5075928;28;20067;-78
2022/04/28 06:04:54;;;;;;;31.40;22.85;;;11.80;99.90;;;;;;5057045;28;20052;-77
2022/04/28 06:07:23;;;;;;;32.03;21.75;;;12.00;99.90;;;;;;5074872;28;20126;-77
2022/04/28 06:09:54;;;;;;;26.90;20.48;;;12.10;99.90;;;;;;5057364;28;20049;-77
2022/04/28 06:12:27;;;;;;;27.80;21.58;;;12.20;99.90;;;;;;5056823;28;20569;-77
2022/04/28 06:15:21;;;;;;;28.45;20.15;;;12.30;99.90;;;;;;5044112;28;20047;-77
2022/04/28 06:17:57;;;;;;;29.17;21.42;;;12.50;1.00;;;;;;5074700;28;20123;-77
2022/04/28 06:20:24;;;;;;;27.95;19.95;;;12.50;12.90;;;;;;5049584;28;20068;-78
2022/04/28 06:23:03;;;;;;;26.90;21.13;;;12.70;1.00;;;;;;5057730;28;20053;-78
2022/04/28 06:25:36;;;;;;;27.42;19.50;;;12.80;1.00;;;;;;5058305;28;20049;-79
2022/04/28 06:28:05;;;;;;;25.10;19.15;;;13.00;1.00;;;;;;5057715;28;20098;-77
2022/04/28 06:30:35;;;;;;;23.98;18.77;;;13.10;1.00;;;;;;5055916;28;20035;-78
2022/04/28 06:33:24;;;;;;;20.65;16.45;;;13.20;99.90;;;;;;5051791;28;20149;-79
2022/04/28 06:36:14;;;;;;;23.35;16.52;;;13.20;99.90;;;;;;5043476;28;20061;-79
2022/04/28 06:38:46;;;;;;;26.65;18.88;;;13.20;62.10;;;;;;5043449;28;20063;-78
2022/04/28 06:41:13;;;;;;;23.77;17.83;;;13.20;99.90;;;;;;5057370;28;20090;-79
2022/04/28 06:43:47;;;;;;;20.33;17.63;;;13.20;40.30;;;;;;5058159;28;20452;-79
2022/04/28 06:46:41;;;;;;;20.85;15.90;;;13.00;19.10;;;;;;5010368;28;20053;-78
2022/04/28 06:49:14;;;;;;;18.80;14.35;;;13.00;1.00;;;;;;5055463;28;20041;-80
2022/04/28 06:51:59;;;;;;;17.65;13.60;;;12.80;1.00;;;;;;5056770;28;20044;-80
2022/04/28 06:54:46;;;;;;;21.80;14.93;;;12.70;19.50;;;;;;5067201;28;20048;-80
2022/04/28 06:57:19;;;;;;;20.38;15.07;;;12.80;1.00;;;;;;5058217;28;20110;-79
2022/04/28 06:59:47;;;;;;;19.17;13.90;;;12.80;25.00;;;;;;5059398;28;20045;-79
2022/04/28 07:02:20;;;;;;;16.00;13.20;;;12.70;1.00;;;;;;5062613;28;20571;-79
2022/04/28 07:04:50;;;;;;;19.65;13.63;;;12.70;1.00;;;;;;5063695;28;20136;-80
2022/04/28 07:07:23;;;;;;;23.17;13.73;;;12.80;1.00;;;;;;5084743;28;20070;-79
2022/04/28 07:09:55;;;;;;;16.83;13.23;;;12.70;1.00;;;;;;5082578;28;20048;-79
2022/04/28 07:12:22;;;;;;;21.08;14.00;;;12.80;1.00;;;;;;5063539;28;20071;-79
2022/04/28 07:14:59;;;;;;;18.05;13.63;;;12.90;1.00;;;;;;5076441;28;20047;-79
2022/04/28 07:17:47;;;;;;;21.77;15.20;;;13.10;1.00;;;;;;5058849;28;20121;-78
2022/04/28 07:20:14;;;;;;;19.83;14.40;;;13.20;1.00;;;;;;5056835;28;20140;-79
2022/04/28 07:22:42;;;;;;;20.02;13.35;;;13.50;1.00;;;;;;5052632;28;20087;-79
2022/04/28 07:25:12;;;;;;;18.80;12.55;;;13.80;99.90;;;;;;5055035;28;20060;-78
2022/04/28 07:27:39;;;;;;;18.35;12.88;;;13.90;1.00;;;;;;5048139;28;20057;-79
2022/04/28 07:30:27;;;;;;;17.23;13.18;;;14.10;99.90;;;;;;5069780;28;20106;-79
2022/04/28 07:32:54;;;;;;;19.02;12.35;;;14.30;99.90;;;;;;5059973;28;20045;-79
2022/04/28 07:35:51;;;;;;;19.42;13.05;;;14.50;1.00;;;;;;5043522;28;20053;-80
2022/04/28 07:38:38;;;;;;;16.42;13.35;;;14.70;29.50;;;;;;5075387;28;20055;-78
2022/04/28 07:41:14;;;;;;;19.25;12.65;;;14.70;1.00;;;;;;5057988;28;20044;-80
2022/04/28 07:43:42;;;;;;;15.55;12.10;;;14.80;1.00;;;;;;5074443;28;20040;-80
2022/04/28 07:46:10;;;;;;;22.58;14.23;;;14.90;99.90;;;;;;5041550;28;20071;-80
2022/04/28 07:48:38;;;;;;;26.90;13.07;;;14.90;1.00;;;;;;5046979;28;20443;-80
2022/04/28 07:51:06;;;;;;;17.63;14.90;;;14.80;1.00;;;;;;5055239;28;20060;-79
2022/04/28 07:53:34;;;;;;;17.23;11.95;;;14.70;1.00;;;;;;5075829;28;20408;-80
2022/04/28 07:56:13;;;;;;;19.55;15.90;;;14.60;1.00;;;;;;5068106;28;20515;-79
2022/04/28 07:58:43;;;;;;;20.83;13.30;;;14.60;1.00;;;;;;5038699;28;20136;-79
2022/04/28 08:01:37;;;;;;;15.07;11.45;;;14.60;1.00;;;;;;5063445;28;20053;-78
2022/04/28 08:04:05;;;;;;;15.10;12.13;;;14.50;1.00;;;;;;5047344;28;20049;-76
2022/04/28 08:06:32;;;;;;;17.30;13.55;;;14.50;99.90;;;;;;5039153;28;20048;-77
2022/04/28 08:09:01;;;;;;;16.70;12.90;;;14.50;1.00;;;;;;5069717;28;20491;-79
2022/04/28 08:11:31;;;;;;;19.65;14.52;;;14.60;1.00;;;;;;5066032;28;20131;-79
2022/04/28 08:14:00;;;;;;;19.98;16.27;;;14.70;1.00;;;;;;5069170;28;20518;-77
2022/04/28 08:16:29;;;;;;;19.88;14.50;;;14.80;1.00;;;;;;5068153;28;20135;-77
2022/04/28 08:18:57;;;;;;;18.77;15.52;;;15.10;1.00;;;;;;5065652;28;20107;-77
2022/04/28 08:21:45;;;;;;;20.25;16.13;;;15.10;23.70;;;;;;5068549;28;20045;-76
2022/04/28 08:24:13;;;;;;;25.20;17.60;;;15.20;1.00;;;;;;5076056;28;20161;-78
2022/04/28 08:26:43;;;;;;;31.45;22.90;;;15.50;1.00;;;;;;5060198;28;20039;-78
2022/04/28 08:29:12;;;;;;;30.48;22.20;;;15.70;86.10;;;;;;5093517;28;20039;-78
2022/04/28 08:31:44;;;;;;;29.50;21.67;;;15.80;1.00;;;;;;5062781;28;20048;-78
2022/04/28 08:34:15;;;;;;;34.65;20.45;;;16.10;1.00;;;;;;5066337;28;20051;-78
2022/04/28 08:36:44;;;;;;;20.58;15.20;;;16.30;99.90;;;;;;5074538;28;20051;-79
2022/04/28 08:39:12;;;;;;;21.58;14.05;;;16.20;99.90;;;;;;5085330;28;20101;-77
2022/04/28 08:41:45;;;;;;;18.15;13.73;;;16.10;99.90;;;;;;5085834;28;20082;-79
2022/04/28 08:44:34;;;;;;;20.75;13.45;;;16.30;99.90;;;;;;5087814;28;20526;-79
2022/04/28 08:47:25;;;;;;;24.98;14.35;;;16.40;1.00;;;;;;5077651;28;20087;-78
2022/04/28 08:50:25;;;;;;;19.63;12.85;;;16.50;1.00;;;;;;5057261;28;20053;-78
2022/04/28 08:53:06;;;;;;;15.85;12.70;;;16.70;1.00;;;;;;5095024;28;20063;-76
2022/04/28 08:55:36;;;;;;;19.85;15.95;;;17.00;1.00;;;;;;5079006;28;20036;-80
2022/04/28 08:58:05;;;;;;;20.13;15.43;;;17.20;1.00;;;;;;5064606;28;20049;-79
2022/04/28 09:00:40;;;;;;;18.35;13.18;;;17.60;1.00;;;;;;5076919;28;20070;-79
2022/04/28 09:03:26;;;;;;;16.02;14.10;;;17.70;1.00;;;;;;5091311;28;20044;-78
2022/04/28 09:06:20;;;;;;;15.95;12.68;;;18.10;1.00;;;;;;5083012;28;20052;-78
2022/04/28 09:09:06;;;;;;;15.35;13.13;;;17.80;1.00;;;;;;5079398;28;20055;-78
2022/04/28 09:11:53;;;;;;;21.38;15.32;;;18.50;1.00;;;;;;5106460;28;20176;-79
2022/04/28 09:14:42;;;;;;;;;;;18.80;1.00;;;;;;5084965;28;20431;-79
2022/04/28 09:17:13;;;;;;;25.45;20.35;;;18.60;1.00;;;;;;5070037;28;19920;-78
2022/04/28 09:19:41;;;;;;;26.50;18.63;;;18.20;1.00;;;;;;5078282;28;20134;-78
2022/04/28 09:22:24;;;;;;;21.67;19.33;;;18.00;1.00;;;;;;5078897;28;20044;-78
2022/04/28 09:24:59;;;;;;;29.67;22.33;;;17.70;1.00;;;;;;5078633;28;20166;-78
2022/04/28 09:27:29;;;;;;;31.13;24.40;;;17.40;1.00;;;;;;5081810;28;20453;-80
2022/04/28 09:30:00;;;;;;;36.03;24.40;;;16.80;1.00;;;;;;5081746;28;20044;-81
2022/04/28 09:32:31;;;;;;;28.15;20.80;;;16.60;1.00;;;;;;5080602;28;20469;-81
2022/04/28 09:35:17;;;;;;;20.00;13.77;;;16.50;1.00;;;;;;5098278;28;20047;-79
2022/04/28 09:38:14;;;;;;;18.83;13.55;;;17.00;1.00;;;;;;5042444;28;20050;-79
2022/04/28 09:43:31;;;;;;;17.95;13.48;;;16.80;1.00;;;;;;5078650;28;20106;-79
2022/04/28 09:46:00;;;;;;;17.85;12.90;;;16.70;1.00;;;;;;5097335;28;20115;-78
2022/04/28 09:48:31;;;;;;;16.40;13.43;;;16.60;1.00;;;;;;5079685;28;20415;-79
2022/04/28 09:51:03;;;;;;;18.77;11.65;;;16.50;1.00;;;;;;5078616;28;20550;-79
2022/04/28 09:54:10;;;;;;;17.42;13.55;;;16.30;1.00;;;;;;5080986;28;20407;-79
2022/04/28 09:56:48;;;;;;;19.25;13.55;;;16.20;1.00;;;;;;5079755;28;20052;-79
2022/04/28 09:59:20;;;;;;;21.75;14.18;;;16.10;1.00;;;;;;5080268;28;20539;-78
2022/04/28 10:01:50;;;;;;;20.83;13.70;;;15.90;1.00;;;;;;5081720;28;20044;-79
2022/04/28 10:04:20;;;;;;;22.33;14.60;;;15.90;1.00;;;;;;5099472;28;20065;-78
2022/04/28 10:07:06;;;;;;;13.68;10.23;;;15.90;1.00;;;;;;5117885;28;20058;-78
2022/04/28 10:09:37;;;;;;;16.02;11.43;;;15.70;1.00;;;;;;5099922;28;20060;-78
2022/04/28 10:12:11;;;;;;;18.67;13.00;;;15.50;76.40;;;;;;5092354;28;20040;-79
2022/04/28 10:15:00;;;;;;;22.90;15.95;;;15.50;99.90;;;;;;5076732;28;20113;-79
2022/04/28 10:17:33;;;;;;;23.95;15.82;;;15.50;99.90;;;;;;5081315;28;20047;-79
2022/04/28 10:20:07;;;;;;;19.70;15.63;;;15.40;99.90;;;;;;5096801;28;20052;-78
2022/04/28 10:22:46;;;;;;;27.67;17.98;;;15.40;99.90;;;;;;5078162;28;20054;-78
2022/04/28 10:34:29;;;;;;;17.58;13.48;;;15.30;1.00;;;;;;5096834;28;20040;-79
2022/04/28 10:36:59;;;;;;;16.30;12.65;;;15.30;1.00;;;;;;5096498;28;20036;-80
2022/04/28 10:39:38;;;;;;;22.42;13.35;;;15.30;1.00;;;;;;5078975;28;20043;-79
2022/04/28 10:42:16;;;;;;;24.05;15.82;;;15.30;1.00;;;;;;5097902;28;20036;-79
2022/04/28 10:44:54;;;;;;;18.48;12.63;;;15.40;1.00;;;;;;5078927;28;20101;-79
2022/04/28 10:47:34;;;;;;;20.02;15.18;;;15.30;1.00;;;;;;5111537;28;20064;-80
2022/04/28 10:50:02;;;;;;;16.88;11.20;;;15.30;1.00;;;;;;5111118;28;20055;-78
2022/04/28 10:52:31;;;;;;;17.92;13.88;;;15.40;1.00;;;;;;5105334;28;20044;-80
2022/04/28 10:55:01;;;;;;;16.88;11.27;;;15.30;1.00;;;;;;5108625;28;20070;-78
2022/04/28 10:57:31;;;;;;;16.40;11.90;;;15.40;1.00;;;;;;5104855;28;20040;-79
2022/04/28 10:59:58;;;;;;;18.98;11.77;;;15.30;1.00;;;;;;5106928;28;20054;-79
2022/04/28 11:02:50;;;;;;;18.73;13.43;;;15.00;1.00;;;;;;5087894;28;20115;-78
2022/04/28 11:05:42;;;;;;;18.88;13.35;;;14.80;1.00;;;;;;5090638;28;20139;-79
2022/04/28 11:08:36;;;;;;;21.10;13.50;;;14.80;99.90;;;;;;5104779;28;20052;-79
2022/04/28 11:11:11;;;;;;;17.58;13.48;;;14.80;1.00;;;;;;5098504;28;20070;-79
2022/04/28 11:13:40;;;;;;;15.02;12.10;;;14.90;99.90;;;;;;5099396;28;20040;-78
2022/04/28 11:16:10;;;;;;;15.95;12.07;;;14.80;1.00;;;;;;5099623;28;20380;-79
2022/04/28 11:18:38;;;;;;;14.07;10.68;;;14.70;99.90;;;;;;5098786;28;20071;-80
2022/04/28 11:21:07;;;;;;;18.38;13.35;;;14.50;1.00;;;;;;5079802;28;20523;-79
2022/04/28 11:23:42;;;;;;;19.20;13.23;;;14.50;99.90;;;;;;5098154;28;20109;-79
2022/04/28 11:26:29;;;;;;;19.05;12.55;;;14.70;99.90;;;;;;5099325;28;20070;-78
2022/04/28 11:29:15;;;;;;;23.92;17.17;;;14.70;1.00;;;;;;5080995;28;20052;-78
2022/04/28 11:31:47;;;;;;;22.88;14.65;;;14.80;2.40;;;;;;5098328;28;20040;-80
2022/04/28 11:34:14;;;;;;;15.38;12.23;;;14.90;1.00;;;;;;5099087;28;20093;-79
2022/04/28 11:36:43;;;;;;;19.92;13.23;;;15.10;1.00;;;;;;5098713;28;20048;-79
2022/04/28 11:39:12;;;;;;;21.27;12.95;;;15.30;1.00;;;;;;5098571;28;20044;-79
2022/04/28 11:41:42;;;;;;;17.15;11.15;;;15.70;99.90;;;;;;5099303;28;20043;-79
2022/04/28 11:44:11;;;;;;;15.18;11.50;;;15.90;99.90;;;;;;5098270;28;20384;-78
2022/04/28 11:46:49;;;;;;;16.25;10.85;;;16.20;1.00;;;;;;5097643;28;20392;-78
2022/04/28 11:49:17;;;;;;;15.18;11.90;;;16.50;1.00;;;;;;5082440;28;20048;-79
2022/04/28 11:51:45;;;;;;;14.52;11.38;;;16.40;1.00;;;;;;5082040;28;20130;-79
2022/04/28 11:54:25;;;;;;;14.98;11.20;;;16.60;99.90;;;;;;5081730;28;20044;-80
2022/04/28 11:57:08;;;;;;;16.23;12.02;;;16.60;99.90;;;;;;5100257;28;20135;-79
2022/04/28 11:59:37;;;;;;;21.42;11.25;;;16.40;99.90;;;;;;5081049;28;20519;-79
2022/04/28 12:02:04;;;;;;;15.77;12.18;;;16.40;99.90;;;;;;5098715;28;20398;-79
2022/04/28 12:04:32;;;;;;;16.77;11.85;;;16.30;99.90;;;;;;5099148;28;20058;-79
2022/04/28 12:07:00;;;;;;;20.73;12.30;;;16.30;99.90;;;;;;5100632;28;20046;-78
2022/04/28 12:15:08;;;;;;;20.33;12.32;;;15.90;1.00;;;;;;5106168;28;20040;-78
2022/04/28 12:20:39;;;;;;;16.15;11.25;;;16.00;99.90;;;;;;5109005;28;20047;-79
2022/04/28 12:23:06;;;;;;;13.93;9.90;;;15.90;99.90;;;;;;5103174;28;20036;-79
2022/04/28 12:25:38;;;;;;;13.40;11.18;;;16.20;99.90;;;;;;5102920;28;20052;-79
2022/04/28 12:28:06;;;;;;;18.13;10.68;;;16.40;99.90;;;;;;5085705;28;20149;-78
2022/04/28 12:30:35;;;;;;;18.88;11.55;;;16.60;3.60;;;;;;5101959;28;20070;-79
2022/04/28 12:33:05;;;;;;;15.15;10.30;;;16.90;80.80;;;;;;5101877;28;20376;-79
2022/04/28 12:35:36;;;;;;;20.95;11.85;;;17.10;1.00;;;;;;5103110;28;20548;-79
2022/04/28 12:38:06;;;;;;;20.42;11.52;;;17.20;1.00;;;;;;5083883;28;20063;-80
2022/04/28 12:40:40;;;;;;;16.77;10.75;;;17.00;1.00;;;;;;5103842;28;20036;-79
2022/04/28 12:43:09;;;;;;;16.60;12.98;;;16.90;1.00;;;;;;5106768;28;20548;-79
2022/04/28 12:45:46;;;;;;;15.45;10.30;;;16.70;1.00;;;;;;5091350;28;20075;-79
2022/04/28 12:48:28;;;;;;;13.57;9.40;;;16.10;75.70;;;;;;5110262;28;20082;-79
2022/04/28 12:51:16;;;;;;;18.45;10.27;;;15.90;14.00;;;;;;5110570;28;20032;-80
2022/04/28 12:53:46;;;;;;;18.45;11.15;;;16.00;99.90;;;;;;5118981;28;20078;-78
2022/04/28 12:56:16;;;;;;;11.90;9.73;;;15.90;4.60;;;;;;5118032;28;20048;-78
2022/04/28 12:58:45;;;;;;;12.90;10.13;;;15.80;99.90;;;;;;5096543;28;20044;-79
2022/04/28 13:01:14;;;;;;;16.67;10.25;;;15.80;99.90;;;;;;5109850;28;20044;-79
2022/04/28 13:03:43;;;;;;;15.05;10.38;;;15.70;99.90;;;;;;5109217;28;20043;-78
2022/04/28 13:06:10;;;;;;;14.30;10.48;;;15.70;99.90;;;;;;5088183;28;20055;-79
2022/04/28 13:08:38;;;;;;;15.68;10.32;;;15.70;99.90;;;;;;5107704;28;20052;-79
2022/04/28 13:11:05;;;;;;;16.73;10.85;;;15.70;99.90;;;;;;5109142;28;20048;-79
2022/04/28 13:13:34;;;;;;;15.13;11.45;;;15.70;99.90;;;;;;5114100;28;20036;-80
2022/04/28 13:16:02;;;;;;;16.60;11.15;;;15.50;99.90;;;;;;5112637;28;20103;-78
2022/04/28 13:18:29;;;;;;;14.82;10.55;;;15.50;1.00;;;;;;5092304;28;20092;-78
2022/04/28 13:20:57;;;;;;;16.08;11.02;;;15.50;1.00;;;;;;5110985;28;20055;-79
2022/04/28 13:23:24;;;;;;;17.33;11.48;;;15.80;1.00;;;;;;5098394;28;20127;-79
2022/04/28 13:25:51;;;;;;;18.25;12.40;;;16.00;99.90;;;;;;5115071;28;20058;-79
2022/04/28 13:28:20;;;;;;;14.90;11.55;;;16.20;99.90;;;;;;5107881;28;20537;-79
2022/04/28 13:30:49;;;;;;;18.00;12.20;;;16.40;99.90;;;;;;5097313;28;20071;-78
2022/04/28 13:33:17;;;;;;;17.85;13.65;;;16.60;99.90;;;;;;5079794;28;20514;-79
2022/04/28 13:35:46;;;;;;;13.35;10.45;;;16.70;96.40;;;;;;5097405;28;20116;-78
2022/04/28 13:38:13;;;;;;;16.48;10.48;;;16.60;1.00;;;;;;5076776;28;20048;-78
2022/04/28 13:40:40;;;;;;;14.18;11.82;;;16.50;14.90;;;;;;5096784;28;20043;-78
2022/04/28 13:43:08;;;;;;;18.33;13.52;;;16.40;1.00;;;;;;5088706;28;20541;-79
2022/04/28 13:45:35;;;;;;;18.10;13.70;;;16.40;19.50;;;;;;5098742;28;20044;-81
2022/04/28 13:48:05;;;;;;;18.63;11.50;;;16.40;37.10;;;;;;5096584;28;20542;-78
2022/04/28 13:50:48;;;;;;;17.20;10.30;;;16.30;2.30;;;;;;5095741;28;20064;-78